createdAt,value
2018-12-13T00:01:08.344Z,2.80
2018-12-13T00:03:43.566Z,2.80
2018-12-13T00:06:19.602Z,3.00
2018-12-13T00:08:53.634Z,3.10
2018-12-13T00:11:27.718Z,3.10
2018-12-13T00:14:01.750Z,3.10
2018-12-13T00:16:35.799Z,2.80
2018-12-13T00:19:09.848Z,2.80
2018-12-13T00:21:43.902Z,2.60
2018-12-13T00:24:17.927Z,2.70
2018-12-13T00:26:51.973Z,2.60
2018-12-13T00:29:26.006Z,2.60
2018-12-13T00:32:00.077Z,2.50
2018-12-13T00:34:34.278Z,2.50
2018-12-13T00:37:08.481Z,2.50
2018-12-13T00:39:42.518Z,2.50
2018-12-13T00:42:16.574Z,2.40
2018-12-13T00:44:50.601Z,2.20
2018-12-13T00:47:24.645Z,2.30
2018-12-13T00:49:58.683Z,2.20
2018-12-13T00:52:33.717Z,2.30
2018-12-13T00:55:07.750Z,2.10
2018-12-13T00:57:41.801Z,2.20
2018-12-13T01:00:15.850Z,2.30
2018-12-13T01:02:50.016Z,2.20
2018-12-13T01:05:24.082Z,2.30
2018-12-13T01:07:58.130Z,2.30
2018-12-13T01:10:32.185Z,2.10
2018-12-13T01:13:06.215Z,2.10
2018-12-13T01:15:41.366Z,2.00
2018-12-13T01:18:15.389Z,2.20
2018-12-13T01:20:49.447Z,2.30
2018-12-13T01:23:23.486Z,2.30
2018-12-13T01:25:57.535Z,2.30
2018-12-13T01:28:31.682Z,2.40
2018-12-13T01:31:05.838Z,2.50
2018-12-13T01:33:39.891Z,2.40
2018-12-13T01:36:13.939Z,2.30
2018-12-13T01:38:47.974Z,2.20
2018-12-13T01:41:22.138Z,2.10
2018-12-13T01:43:56.186Z,2.10
2018-12-13T01:46:30.315Z,1.90
2018-12-13T01:49:04.350Z,2.00
2018-12-13T01:51:38.403Z,2.10
2018-12-13T01:54:12.457Z,2.30
2018-12-13T01:56:46.497Z,2.30
2018-12-13T01:59:20.558Z,2.30
2018-12-13T02:01:54.610Z,2.40
2018-12-13T02:04:28.646Z,2.30
2018-12-13T02:07:02.685Z,2.40
2018-12-13T02:09:36.718Z,2.60
2018-12-13T02:12:10.762Z,2.70
2018-12-13T02:14:44.794Z,2.70
2018-12-13T02:17:18.845Z,2.60
2018-12-13T02:19:52.898Z,2.70
2018-12-13T02:22:26.937Z,2.60
2018-12-13T02:25:00.977Z,2.60
2018-12-13T02:27:35.022Z,2.60
2018-12-13T02:30:09.881Z,2.70
2018-12-13T02:32:43.954Z,2.70
2018-12-13T02:35:17.993Z,2.70
2018-12-13T02:37:52.048Z,2.70
2018-12-13T02:40:26.073Z,2.70
2018-12-13T02:43:00.122Z,2.70
2018-12-13T02:45:34.162Z,2.70
2018-12-13T02:48:08.309Z,2.80
2018-12-13T02:50:42.381Z,2.70
2018-12-13T02:53:16.429Z,2.70
2018-12-13T02:55:50.460Z,2.60
2018-12-13T02:58:24.506Z,2.60
2018-12-13T03:00:58.538Z,2.60
2018-12-13T03:03:32.586Z,2.60
2018-12-13T03:06:06.781Z,2.50
2018-12-13T03:08:40.843Z,2.60
2018-12-13T03:11:14.901Z,2.60
2018-12-13T03:13:48.943Z,2.50
2018-12-13T03:16:23.046Z,2.50
2018-12-13T03:18:57.082Z,2.50
2018-12-13T03:21:31.126Z,2.50
2018-12-13T03:24:05.281Z,2.40
2018-12-13T03:26:39.410Z,2.40
2018-12-13T03:29:13.443Z,2.30
2018-12-13T03:31:47.515Z,2.30
2018-12-13T03:34:21.679Z,2.10
2018-12-13T03:36:55.728Z,2.00
2018-12-13T03:39:29.822Z,2.10
2018-12-13T03:42:03.914Z,2.00
2018-12-13T03:44:37.952Z,1.80
2018-12-13T03:47:12.007Z,1.80
2018-12-13T03:49:46.047Z,1.80
2018-12-13T03:52:20.126Z,1.80
2018-12-13T03:54:54.169Z,1.90
2018-12-13T03:57:28.234Z,1.90
2018-12-13T04:00:02.276Z,1.80
2018-12-13T04:02:37.428Z,1.70
2018-12-13T04:05:11.468Z,1.60
2018-12-13T04:07:45.522Z,1.60
2018-12-13T04:10:19.563Z,1.50
2018-12-13T04:12:53.736Z,1.50
2018-12-13T04:15:27.885Z,1.40
2018-12-13T04:18:01.974Z,1.40
2018-12-13T04:20:37.992Z,1.60
2018-12-13T04:23:12.058Z,1.60
2018-12-13T04:25:46.088Z,1.60
2018-12-13T04:28:20.141Z,1.60
2018-12-13T04:30:54.177Z,1.80
2018-12-13T04:33:28.208Z,1.80
2018-12-13T04:36:02.228Z,1.80
2018-12-13T04:38:36.244Z,1.90
2018-12-13T04:41:10.233Z,1.90
2018-12-13T04:43:44.250Z,1.90
2018-12-13T04:46:18.289Z,1.90
2018-12-13T04:48:52.305Z,1.70
2018-12-13T04:51:26.314Z,1.90
2018-12-13T04:54:00.342Z,2.00
2018-12-13T04:56:35.338Z,2.00
2018-12-13T04:59:09.357Z,1.90
2018-12-13T05:01:43.478Z,1.90
2018-12-13T05:04:17.480Z,1.90
2018-12-13T05:06:51.522Z,2.00
2018-12-13T05:09:25.529Z,1.80
2018-12-13T05:11:59.645Z,1.80
2018-12-13T05:14:33.648Z,1.90
2018-12-13T05:17:07.725Z,1.70
2018-12-13T05:19:41.731Z,1.80
2018-12-13T05:22:15.776Z,1.80
2018-12-13T05:24:49.841Z,1.70
2018-12-13T05:27:23.890Z,1.70
2018-12-13T05:29:57.913Z,1.80
2018-12-13T05:32:31.991Z,1.80
2018-12-13T05:35:06.457Z,2.10
2018-12-13T05:37:40.524Z,2.00
2018-12-13T05:40:14.560Z,1.90
2018-12-13T05:42:48.621Z,1.80
2018-12-13T05:45:27.196Z,1.80
2018-12-13T05:48:01.262Z,2.00
2018-12-13T05:50:35.302Z,1.90
2018-12-13T05:53:09.697Z,1.90
2018-12-13T05:55:43.744Z,1.80
2018-12-13T05:58:17.802Z,1.90
2018-12-13T06:00:53.916Z,1.90
2018-12-13T06:03:27.982Z,1.90
2018-12-13T06:06:02.021Z,1.70
2018-12-13T06:08:36.076Z,1.70
2018-12-13T06:11:10.133Z,1.70
2018-12-13T06:13:44.293Z,1.60
2018-12-13T06:16:18.456Z,1.70
2018-12-13T06:18:52.628Z,1.70
2018-12-13T06:21:26.669Z,1.80
2018-12-13T06:24:00.732Z,1.70
2018-12-13T06:26:34.796Z,1.60
2018-12-13T06:29:08.871Z,1.30
2018-12-13T06:31:42.929Z,1.10
2018-12-13T06:34:19.044Z,1.00
2018-12-13T06:36:53.157Z,1.20
2018-12-13T06:39:28.345Z,1.30
2018-12-13T06:42:02.708Z,1.30
2018-12-13T06:44:36.888Z,1.30
2018-12-13T06:47:11.025Z,1.30
2018-12-13T06:49:45.110Z,1.40
2018-12-13T06:52:19.154Z,0.90
2018-12-13T06:54:53.224Z,1.00
2018-12-13T06:57:27.278Z,1.20
2018-12-13T07:00:01.341Z,1.20
2018-12-13T07:02:35.405Z,1.30
2018-12-13T07:05:09.477Z,1.40
2018-12-13T07:07:43.525Z,1.20
2018-12-13T07:10:17.605Z,0.90
2018-12-13T07:12:51.657Z,0.80
2018-12-13T07:15:25.725Z,0.90
2018-12-13T07:17:59.770Z,0.90
2018-12-13T07:20:33.834Z,0.70
2018-12-13T07:23:07.890Z,0.70
2018-12-13T07:25:41.955Z,0.80
2018-12-13T07:28:16.014Z,0.70
2018-12-13T07:30:50.088Z,0.80
2018-12-13T07:33:24.168Z,0.80
2018-12-13T07:35:58.222Z,1.00
2018-12-13T07:38:32.261Z,1.00
2018-12-13T07:41:06.421Z,1.00
2018-12-13T07:43:40.473Z,1.10
2018-12-13T07:46:23.038Z,1.20
2018-12-13T07:48:57.167Z,1.30
2018-12-13T07:51:31.230Z,1.20
2018-12-13T07:54:05.281Z,1.00
2018-12-13T07:56:39.342Z,1.00
2018-12-13T07:59:13.413Z,1.20
2018-12-13T08:01:48.502Z,1.30
2018-12-13T08:04:22.592Z,1.40
2018-12-13T08:06:56.632Z,1.40
2018-12-13T08:09:30.692Z,1.40
2018-12-13T08:12:04.750Z,1.30
2018-12-13T08:14:38.965Z,1.20
2018-12-13T08:17:13.021Z,1.40
2018-12-13T08:19:49.075Z,1.50
2018-12-13T08:22:23.114Z,1.50
2018-12-13T08:24:57.264Z,2.00
2018-12-13T08:27:31.335Z,1.90
2018-12-13T08:30:07.369Z,1.50
2018-12-13T08:32:41.394Z,1.50
2018-12-13T08:35:15.433Z,1.30
2018-12-13T08:37:49.464Z,1.00
2018-12-13T08:40:27.474Z,0.90
2018-12-13T08:43:01.476Z,0.90
2018-12-13T08:45:35.749Z,0.90
2018-12-13T08:48:09.748Z,0.90
2018-12-13T08:50:43.777Z,0.90
2018-12-13T08:53:17.897Z,1.00
2018-12-13T08:55:51.931Z,0.90
2018-12-13T08:58:25.947Z,1.10
2018-12-13T09:00:59.982Z,1.10
2018-12-13T09:03:33.989Z,1.10
2018-12-13T09:06:11.374Z,1.10
2018-12-13T09:08:45.392Z,1.10
2018-12-13T09:11:19.456Z,1.10
2018-12-13T09:13:53.470Z,1.00
2018-12-13T09:16:31.492Z,1.00
2018-12-13T09:19:03.792Z,1.00
2018-12-13T09:21:37.829Z,1.00
2018-12-13T09:24:11.841Z,1.00
2018-12-13T09:26:45.874Z,0.90
2018-12-13T09:29:19.889Z,1.00
2018-12-13T09:31:54.213Z,1.10
2018-12-13T09:34:28.249Z,1.00
2018-12-13T09:37:02.397Z,1.00
2018-12-13T09:39:36.541Z,1.10
2018-12-13T09:42:10.583Z,1.20
2018-12-13T09:44:44.597Z,1.20
2018-12-13T09:47:18.622Z,1.20
2018-12-13T09:49:52.686Z,1.30
2018-12-13T09:52:26.700Z,1.30
2018-12-13T09:55:05.681Z,1.40
2018-12-13T09:57:36.741Z,1.60
2018-12-13T10:00:12.971Z,1.60
2018-12-13T10:02:46.986Z,1.70
2018-12-13T10:05:21.026Z,1.70
2018-12-13T10:07:55.046Z,1.70
2018-12-13T10:10:29.114Z,1.70
2018-12-13T10:13:03.128Z,1.60
2018-12-13T10:15:37.149Z,1.60
2018-12-13T10:18:11.174Z,1.70
2018-12-13T10:20:45.241Z,1.80
2018-12-13T10:23:19.250Z,1.70
2018-12-13T10:25:59.368Z,1.60
2018-12-13T10:28:29.288Z,1.60
2018-12-13T10:31:03.598Z,1.70
2018-12-13T10:33:37.628Z,2.00
2018-12-13T10:36:11.783Z,2.00
2018-12-13T10:38:45.781Z,2.10
2018-12-13T10:41:19.814Z,2.10
2018-12-13T10:43:53.973Z,2.20
2018-12-13T10:46:28.133Z,2.40
2018-12-13T10:49:02.141Z,2.50
2018-12-13T10:51:36.176Z,2.60
2018-12-13T10:54:10.220Z,2.70
2018-12-13T10:56:44.287Z,2.70
2018-12-13T10:59:19.290Z,2.80
2018-12-13T11:01:58.822Z,3.00
2018-12-13T11:04:32.840Z,3.10
2018-12-13T11:07:06.870Z,3.00
2018-12-13T11:09:40.894Z,2.80
2018-12-13T11:12:14.921Z,3.00
2018-12-13T11:14:49.038Z,2.80
2018-12-13T11:17:23.059Z,3.10
2018-12-13T11:19:57.072Z,3.00
2018-12-13T11:22:31.091Z,3.10
2018-12-13T11:25:05.394Z,3.10
2018-12-13T11:28:17.933Z,3.10
2018-12-13T11:30:51.965Z,3.30
2018-12-13T11:33:26.022Z,3.20
2018-12-13T11:36:00.073Z,3.20
2018-12-13T11:38:34.102Z,3.40
2018-12-13T11:41:08.253Z,3.60
2018-12-13T11:43:42.301Z,3.60
2018-12-13T11:46:16.349Z,3.60
2018-12-13T11:48:50.381Z,3.80
2018-12-13T11:51:24.440Z,3.60
2018-12-13T11:53:58.675Z,3.40
2018-12-13T11:56:32.710Z,3.40
2018-12-13T11:59:06.745Z,3.30
2018-12-13T12:01:40.793Z,3.20
2018-12-13T12:04:14.823Z,3.30
2018-12-13T12:06:48.884Z,3.60
2018-12-13T12:09:22.918Z,3.70
2018-12-13T12:11:57.041Z,3.80
2018-12-13T12:14:31.076Z,3.60
2018-12-13T12:17:05.681Z,3.80
2018-12-13T12:19:39.857Z,3.90
2018-12-13T12:22:13.902Z,4.00
2018-12-13T12:24:48.064Z,4.10
2018-12-13T12:27:22.237Z,4.10
2018-12-13T12:29:56.315Z,4.10
2018-12-13T12:32:30.376Z,4.10
2018-12-13T12:35:06.053Z,4.10
2018-12-13T12:37:40.143Z,4.00
2018-12-13T12:40:14.171Z,3.80
2018-12-13T12:42:48.192Z,3.80
2018-12-13T12:45:22.241Z,4.00
2018-12-13T12:47:56.325Z,4.00
2018-12-13T12:50:30.472Z,4.10
2018-12-13T12:53:04.494Z,4.20
2018-12-13T12:55:38.486Z,4.30
2018-12-13T12:58:12.595Z,4.30
2018-12-13T13:00:46.633Z,4.20
2018-12-13T13:03:20.765Z,4.20
2018-12-13T13:05:54.796Z,4.10
2018-12-13T13:08:28.813Z,3.90
2018-12-13T13:11:02.814Z,3.90
2018-12-13T13:13:36.825Z,3.90
2018-12-13T13:16:10.880Z,3.70
2018-12-13T13:18:44.902Z,3.70
2018-12-13T13:21:18.909Z,3.90
2018-12-13T13:23:52.942Z,4.00
2018-12-13T13:26:30.669Z,3.70
2018-12-13T13:29:04.686Z,3.60
2018-12-13T13:31:38.685Z,3.60
2018-12-13T13:34:12.769Z,3.40
2018-12-13T13:36:46.826Z,3.40
2018-12-13T13:39:20.878Z,3.40
2018-12-13T13:41:54.989Z,3.40
2018-12-13T13:44:34.438Z,3.50
2018-12-13T13:47:08.570Z,3.30
2018-12-13T13:49:42.673Z,3.20
2018-12-13T13:52:16.834Z,3.30
2018-12-13T13:54:50.959Z,3.30
2018-12-13T13:57:25.145Z,3.20
2018-12-13T13:59:59.345Z,3.20
2018-12-13T14:02:33.490Z,3.20
2018-12-13T14:05:08.793Z,3.30
2018-12-13T14:07:42.848Z,3.20
2018-12-13T14:10:16.909Z,3.20
2018-12-13T14:12:50.954Z,3.10
2018-12-13T14:15:25.017Z,3.20
2018-12-13T14:17:59.161Z,3.10
2018-12-13T14:20:33.209Z,3.10
2018-12-13T14:23:07.260Z,3.20
2018-12-13T14:25:41.305Z,3.20
2018-12-13T14:28:15.349Z,3.10
2018-12-13T14:30:49.450Z,3.00
2018-12-13T14:33:23.532Z,3.00
2018-12-13T14:35:57.654Z,3.20
2018-12-13T14:38:32.746Z,3.10
2018-12-13T14:41:08.918Z,3.00
2018-12-13T14:43:59.861Z,3.00
2018-12-13T14:46:33.992Z,3.00
2018-12-13T14:49:08.149Z,3.00
2018-12-13T14:51:42.173Z,2.80
2018-12-13T14:54:16.248Z,2.70
2018-12-13T14:56:50.285Z,2.80
2018-12-13T14:59:24.507Z,2.80
2018-12-13T15:01:58.598Z,2.80
2018-12-13T15:04:32.649Z,2.70
2018-12-13T15:07:06.677Z,2.70
2018-12-13T15:09:40.777Z,2.70
2018-12-13T15:12:16.026Z,2.70
2018-12-13T15:14:50.073Z,2.70
2018-12-13T15:17:24.145Z,2.60
2018-12-13T15:19:58.200Z,2.60
2018-12-13T15:22:32.229Z,2.60
2018-12-13T15:25:06.583Z,2.60
2018-12-13T15:27:40.626Z,2.50
2018-12-13T15:30:14.649Z,2.50
2018-12-13T15:32:48.692Z,2.60
2018-12-13T15:35:22.701Z,2.60
2018-12-13T15:37:56.768Z,2.50
2018-12-13T15:40:30.763Z,2.40
2018-12-13T15:43:04.782Z,2.40
2018-12-13T15:45:39.773Z,2.40
2018-12-13T15:48:13.794Z,2.20
2018-12-13T15:50:47.930Z,2.20
2018-12-13T15:53:27.665Z,2.40
2018-12-13T15:56:01.658Z,2.30
2018-12-13T15:58:35.674Z,2.30
2018-12-13T16:01:09.683Z,2.30
2018-12-13T16:03:43.688Z,2.40
2018-12-13T16:06:17.743Z,2.30
2018-12-13T16:08:51.763Z,2.30
2018-12-13T16:11:25.962Z,2.30
2018-12-13T16:13:59.976Z,2.30
2018-12-13T16:16:33.977Z,2.30
2018-12-13T16:19:08.026Z,2.30
2018-12-13T16:21:42.014Z,2.30
2018-12-13T16:24:16.100Z,2.30
2018-12-13T16:26:50.145Z,2.30
2018-12-13T16:29:24.161Z,2.40
2018-12-13T16:31:58.181Z,2.30
2018-12-13T16:34:32.198Z,2.30
2018-12-13T16:37:06.216Z,2.40
2018-12-13T16:39:40.233Z,2.30
2018-12-13T16:42:14.237Z,2.30
2018-12-13T16:44:48.307Z,2.30
2018-12-13T16:47:22.380Z,2.20
2018-12-13T16:49:56.427Z,2.20
2018-12-13T16:52:30.414Z,2.20
2018-12-13T16:55:04.885Z,2.30
2018-12-13T16:57:38.884Z,2.20
2018-12-13T17:00:13.115Z,2.20
2018-12-13T17:02:47.118Z,2.20
2018-12-13T17:05:21.211Z,2.20
2018-12-13T17:07:56.141Z,2.20
2018-12-13T17:10:30.154Z,2.20
2018-12-13T17:13:04.156Z,2.20
2018-12-13T17:15:42.173Z,2.10
2018-12-13T17:18:17.288Z,2.10
2018-12-13T17:20:51.597Z,2.10
2018-12-13T17:23:25.860Z,2.10
2018-12-13T17:26:00.038Z,2.20
2018-12-13T17:28:35.252Z,2.20
2018-12-13T17:31:09.394Z,2.10
2018-12-13T17:33:43.557Z,2.20
2018-12-13T17:36:17.604Z,2.30
2018-12-13T17:38:51.665Z,2.20
2018-12-13T17:41:26.806Z,2.20
2018-12-13T17:44:02.006Z,2.10
2018-12-13T17:46:36.131Z,2.00
2018-12-13T17:49:10.273Z,2.10
2018-12-13T17:51:45.554Z,2.10
2018-12-13T17:54:19.618Z,2.10
2018-12-13T17:56:53.761Z,2.10
2018-12-13T17:59:27.805Z,2.20
2018-12-13T18:02:01.860Z,2.40
2018-12-13T18:04:36.960Z,2.30
2018-12-13T18:07:11.093Z,2.40
2018-12-13T18:09:45.221Z,2.40
2018-12-13T18:12:23.127Z,2.40
2018-12-13T18:14:57.220Z,2.30
2018-12-13T18:17:31.301Z,2.30
2018-12-13T18:20:07.341Z,2.20
2018-12-13T18:22:41.500Z,2.20
2018-12-13T18:25:15.604Z,2.20
2018-12-13T18:27:53.340Z,2.20
2018-12-13T18:30:27.510Z,2.20
2018-12-13T18:33:01.569Z,2.20
2018-12-13T18:35:35.656Z,2.20
2018-12-13T18:38:09.750Z,2.20
2018-12-13T18:40:43.944Z,2.30
2018-12-13T18:43:17.984Z,2.20
2018-12-13T18:45:52.044Z,2.20
2018-12-13T18:48:26.090Z,2.10
2018-12-13T18:51:00.169Z,2.10
2018-12-13T18:53:35.465Z,2.10
2018-12-13T18:56:09.642Z,2.10
2018-12-13T18:58:43.725Z,2.10
2018-12-13T19:01:22.421Z,2.10
2018-12-13T19:03:56.476Z,2.10
2018-12-13T19:06:30.542Z,2.00
2018-12-13T19:09:07.598Z,2.10
2018-12-13T19:11:43.707Z,2.10
2018-12-13T19:14:17.779Z,2.10
2018-12-13T19:16:51.865Z,2.10
2018-12-13T19:19:25.981Z,2.10
2018-12-13T19:22:00.064Z,2.00
2018-12-13T19:24:34.184Z,2.00
2018-12-13T19:27:08.390Z,2.10
2018-12-13T19:29:42.489Z,2.10
2018-12-13T19:32:16.534Z,2.10
2018-12-13T19:34:50.682Z,2.00
2018-12-13T19:37:25.138Z,2.20
2018-12-13T19:39:59.189Z,2.20
2018-12-13T19:42:33.398Z,2.10
2018-12-13T19:45:07.732Z,2.30
2018-12-13T19:47:41.849Z,2.30
2018-12-13T19:50:16.011Z,2.30
2018-12-13T19:52:50.015Z,2.50
2018-12-13T19:55:25.179Z,2.50
2018-12-13T19:57:59.197Z,2.80
2018-12-13T20:00:33.248Z,2.80
2018-12-13T20:03:07.465Z,2.70
2018-12-13T20:05:41.497Z,2.70
2018-12-13T20:08:15.504Z,2.70
2018-12-13T20:10:54.608Z,2.60
2018-12-13T20:13:26.667Z,2.50
2018-12-13T20:16:00.786Z,2.40
2018-12-13T20:18:34.905Z,2.40
2018-12-13T20:21:09.041Z,2.30
2018-12-13T20:23:43.246Z,2.30
2018-12-13T20:26:18.264Z,2.30
2018-12-13T20:28:52.281Z,2.20
2018-12-13T20:31:26.433Z,2.30
2018-12-13T20:34:00.501Z,2.20
2018-12-13T20:36:34.657Z,2.30
2018-12-13T20:39:09.496Z,2.30
2018-12-13T20:41:44.633Z,2.10
2018-12-13T20:44:22.181Z,2.00
2018-12-13T20:46:56.215Z,2.10
2018-12-13T20:49:30.431Z,2.20
2018-12-13T20:52:04.793Z,2.30
2018-12-13T20:54:38.833Z,2.30
2018-12-13T20:57:12.910Z,2.30
2018-12-13T20:59:46.954Z,2.30
2018-12-13T21:02:21.186Z,2.20
2018-12-13T21:04:55.364Z,2.30
2018-12-13T21:16:46.166Z,2.50
2018-12-13T21:19:20.192Z,2.40
2018-12-13T21:21:54.313Z,2.50
2018-12-13T21:24:28.358Z,2.50
2018-12-13T21:27:03.509Z,2.40
2018-12-13T21:29:37.763Z,2.50
2018-12-13T21:32:11.875Z,2.30
2018-12-13T21:34:45.953Z,2.30
2018-12-13T21:37:19.970Z,2.20
2018-12-13T21:39:54.015Z,2.20
2018-12-13T21:42:28.369Z,2.20
2018-12-13T21:45:02.492Z,2.20
2018-12-13T21:47:36.505Z,2.20
2018-12-13T21:50:10.510Z,2.20
2018-12-13T21:52:44.537Z,2.20
2018-12-13T21:55:18.615Z,2.30
2018-12-13T21:57:52.734Z,2.20
2018-12-13T22:00:26.850Z,2.20
2018-12-13T22:03:00.871Z,2.10
2018-12-13T22:05:34.861Z,2.20
2018-12-13T22:08:08.919Z,2.10
2018-12-13T22:10:42.901Z,2.20
2018-12-13T22:13:17.105Z,2.10
2018-12-13T22:15:51.097Z,2.10
2018-12-13T22:18:25.115Z,2.00
2018-12-13T22:20:59.118Z,2.00
2018-12-13T22:23:33.150Z,2.10
2018-12-13T22:26:07.305Z,2.10
2018-12-13T22:28:41.325Z,2.10
2018-12-13T22:31:15.385Z,2.10
2018-12-13T22:33:49.461Z,2.10
2018-12-13T22:36:23.502Z,2.10
2018-12-13T22:38:57.624Z,2.00
2018-12-13T22:41:31.673Z,2.00
2018-12-13T22:44:05.837Z,1.90
2018-12-13T22:46:39.874Z,2.00
2018-12-13T22:49:13.942Z,2.00
2018-12-13T22:51:48.030Z,2.00
2018-12-13T22:54:22.246Z,2.00
2018-12-13T22:56:56.345Z,2.00
2018-12-13T22:59:30.399Z,2.00
2018-12-13T23:02:04.437Z,1.90
2018-12-13T23:04:38.488Z,1.80
2018-12-13T23:07:12.514Z,1.80
2018-12-13T23:09:46.652Z,1.80
2018-12-13T23:12:20.689Z,1.80
2018-12-13T23:14:55.170Z,1.80
2018-12-13T23:17:29.607Z,1.80
2018-12-13T23:20:04.196Z,1.70
2018-12-13T23:22:38.421Z,1.90
2018-12-13T23:25:12.474Z,2.20
2018-12-13T23:27:46.529Z,2.20
2018-12-13T23:30:20.603Z,2.20
2018-12-13T23:32:54.621Z,2.20
2018-12-13T23:35:28.712Z,2.10
2018-12-13T23:38:02.729Z,2.20
2018-12-13T23:40:36.733Z,2.10
2018-12-13T23:43:10.745Z,2.10
2018-12-13T23:48:44.067Z,1.90
2018-12-13T23:51:18.342Z,1.90
2018-12-13T23:53:52.369Z,2.00
2018-12-13T23:56:26.368Z,2.00
2018-12-13T23:59:00.805Z,2.10
